Time;durP1;ratioP1;P1;durP2;ratioP2;P2;SDS_P1;SDS_P2;PMS_P1;PMS_P2;Temp;Humidity;BMP_temperature;BMP_pressure;BME280_temperature;BME280_humidity;BME280_pressure;Samples;Min_cycle;Max_cycle;Signal;HPM_P1;HPM_P2
2022/01/11 00:00:03;;;;;;;49.50;21.00;;;;;;;;;;5055688;28;20478;-71
2022/01/11 00:02:29;;;;;;;58.10;22.90;;;;;;;;;;5054415;28;20117;-71
2022/01/11 00:04:55;;;;;;;57.63;22.63;;;;;;;;;;5054883;28;20473;-73
2022/01/11 00:07:22;;;;;;;53.50;22.85;;;;;;;;;;5055743;28;20041;-73
2022/01/11 00:09:50;;;;;;;55.42;21.88;;;;;;;;;;5055574;28;20068;-73
2022/01/11 00:12:15;;;;;;;51.03;21.70;;;;;;;;;;5055517;28;20110;-74
2022/01/11 00:14:41;;;;;;;50.80;21.47;;;;;;;;;;5053687;28;20072;-73
2022/01/11 00:17:06;;;;;;;57.40;20.93;;;;;;;;;;5055438;28;20033;-71
2022/01/11 00:19:33;;;;;;;56.37;22.20;;;;;;;;;;5053789;28;20029;-71
2022/01/11 00:22:01;;;;;;;55.28;22.10;;;;;;;;;;5054072;28;20123;-71
2022/01/11 00:24:30;;;;;;;56.35;23.05;;;;;;;;;;5054044;28;20037;-72
2022/01/11 00:27:18;;;;;;;50.38;20.35;;;;;;;;;;5046688;28;20055;-71
2022/01/11 00:29:47;;;;;;;65.43;23.27;;;;;;;;;;5055069;28;20087;-73
2022/01/11 00:32:16;;;;;;;48.13;19.92;;;;;;;;;;5055114;28;20085;-73
2022/01/11 00:34:50;;;;;;;50.97;19.83;;;;;;;;;;5054996;28;20063;-73
2022/01/11 00:37:17;;;;;;;52.15;20.65;;;;;;;;;;5038474;28;20517;-73
2022/01/11 00:39:45;;;;;;;48.92;19.70;;;;;;;;;;5053732;28;20028;-73
2022/01/11 00:42:12;;;;;;;53.03;20.67;;;;;;;;;;5054683;28;20482;-73
2022/01/11 00:44:37;;;;;;;49.17;20.40;;;;;;;;;;5052144;28;20021;-73
2022/01/11 00:47:03;;;;;;;44.90;19.13;;;;;;;;;;5055032;28;20056;-71
2022/01/11 00:49:29;;;;;;;36.67;16.87;;;;;;;;;;5054266;28;20072;-71
2022/01/11 00:51:54;;;;;;;47.03;19.37;;;;;;;;;;5054727;28;20032;-71
2022/01/11 00:54:20;;;;;;;36.70;18.23;;;;;;;;;;5054871;28;20043;-71
2022/01/11 00:56:45;;;;;;;51.17;20.23;;;;;;;;;;5054231;28;20047;-70
2022/01/11 00:59:10;;;;;;;44.50;19.00;;;;;;;;;;5054843;28;20025;-73
2022/01/11 01:01:37;;;;;;;38.73;18.17;;;;;;;;;;5054485;28;20115;-74
2022/01/11 01:04:07;;;;;;;49.10;20.52;;;;;;;;;;5052882;28;20037;-73
2022/01/11 01:06:32;;;;;;;44.65;19.48;;;;;;;;;;5054149;28;20040;-73
2022/01/11 01:08:58;;;;;;;48.40;20.63;;;;;;;;;;5053331;28;20040;-73
2022/01/11 01:11:23;;;;;;;47.07;19.50;;;;;;;;;;5054029;28;20064;-74
2022/01/11 01:13:49;;;;;;;48.83;19.40;;;;;;;;;;5054158;28;20029;-70
2022/01/11 01:16:14;;;;;;;56.63;20.57;;;;;;;;;;5054363;28;20385;-71
2022/01/11 01:18:40;;;;;;;43.60;18.63;;;;;;;;;;5054444;28;20056;-70
2022/01/11 01:21:05;;;;;;;50.97;19.83;;;;;;;;;;5053926;28;20115;-71
2022/01/11 01:23:31;;;;;;;51.00;18.97;;;;;;;;;;5052823;28;20136;-72
2022/01/11 01:25:57;;;;;;;43.00;17.47;;;;;;;;;;5054098;28;20083;-71
2022/01/11 01:28:23;;;;;;;38.85;15.30;;;;;;;;;;5053851;28;20478;-71
2022/01/11 01:30:49;;;;;;;38.88;15.50;;;;;;;;;;5052732;28;20047;-73
2022/01/11 01:33:15;;;;;;;40.13;15.05;;;;;;;;;;5052669;28;20134;-73
2022/01/11 01:35:43;;;;;;;39.10;15.63;;;;;;;;;;5052668;28;20065;-73
2022/01/11 01:38:10;;;;;;;42.33;16.38;;;;;;;;;;5054088;28;20048;-73
2022/01/11 01:40:41;;;;;;;39.55;14.25;;;;;;;;;;5052854;28;20068;-73
2022/01/11 01:43:11;;;;;;;43.95;15.63;;;;;;;;;;5046408;28;20035;-70
2022/01/11 01:45:38;;;;;;;44.65;16.00;;;;;;;;;;5050123;28;20090;-75
2022/01/11 01:48:04;;;;;;;43.85;15.27;;;;;;;;;;5051889;28;20112;-73
2022/01/11 01:50:30;;;;;;;41.27;15.27;;;;;;;;;;5051930;28;20136;-73
2022/01/11 01:52:57;;;;;;;40.42;15.07;;;;;;;;;;5053300;28;20045;-74
2022/01/11 01:55:23;;;;;;;34.38;14.13;;;;;;;;;;5052144;28;20090;-73
2022/01/11 01:57:50;;;;;;;45.38;15.45;;;;;;;;;;5052208;28;20389;-73
2022/01/11 02:00:16;;;;;;;44.08;15.55;;;;;;;;;;5053243;28;20098;-73
2022/01/11 02:02:42;;;;;;;42.08;15.18;;;;;;;;;;5052271;28;20037;-72
2022/01/11 02:05:07;;;;;;;48.37;16.07;;;;;;;;;;5052217;28;20059;-70
2022/01/11 02:07:33;;;;;;;38.47;14.73;;;;;;;;;;5051481;28;20046;-70
2022/01/11 02:10:01;;;;;;;41.90;16.00;;;;;;;;;;5052125;28;20565;-70
2022/01/11 02:12:27;;;;;;;42.85;16.15;;;;;;;;;;5053460;28;20031;-70
2022/01/11 02:14:53;;;;;;;41.08;14.90;;;;;;;;;;5052040;28;20425;-71
2022/01/11 02:17:18;;;;;;;48.40;16.43;;;;;;;;;;5053199;28;20071;-70
2022/01/11 02:19:44;;;;;;;38.63;15.80;;;;;;;;;;5053267;28;20059;-70
2022/01/11 02:22:09;;;;;;;41.13;15.47;;;;;;;;;;5052912;28;20045;-70
2022/01/11 02:24:34;;;;;;;39.47;14.57;;;;;;;;;;5052961;28;20125;-72
2022/01/11 02:27:00;;;;;;;45.23;14.97;;;;;;;;;;5053250;28;20138;-70
2022/01/11 02:29:27;;;;;;;42.70;14.80;;;;;;;;;;5052973;28;20466;-72
2022/01/11 02:31:54;;;;;;;40.30;14.05;;;;;;;;;;5051906;28;20037;-71
2022/01/11 02:34:19;;;;;;;40.45;13.90;;;;;;;;;;5051933;28;20040;-71
2022/01/11 02:36:45;;;;;;;38.77;14.63;;;;;;;;;;5052850;28;20412;-70
2022/01/11 02:39:10;;;;;;;34.50;14.70;;;;;;;;;;5051901;28;20037;-70
2022/01/11 02:41:35;;;;;;;44.27;16.80;;;;;;;;;;5052870;28;20389;-71
2022/01/11 02:44:02;;;;;;;43.30;13.63;;;;;;;;;;5051855;28;20070;-70
2022/01/11 02:46:28;;;;;;;47.50;15.35;;;;;;;;;;5051691;28;20044;-71
2022/01/11 02:48:55;;;;;;;37.60;15.23;;;;;;;;;;5052901;28;20032;-70
2022/01/11 02:51:22;;;;;;;53.88;16.75;;;;;;;;;;5051708;28;20174;-70
2022/01/11 02:53:49;;;;;;;37.95;14.57;;;;;;;;;;5052877;28;20041;-70
2022/01/11 02:56:16;;;;;;;50.95;16.80;;;;;;;;;;5052890;28;20033;-70
2022/01/11 02:58:41;;;;;;;46.42;15.90;;;;;;;;;;5052700;28;20041;-71
2022/01/11 03:01:08;;;;;;;56.83;16.50;;;;;;;;;;5052653;28;20055;-71
2022/01/11 03:03:34;;;;;;;58.70;17.70;;;;;;;;;;5051525;28;20032;-70
2022/01/11 03:06:02;;;;;;;63.92;18.25;;;;;;;;;;5052656;28;20044;-71
2022/01/11 03:08:30;;;;;;;69.88;17.20;;;;;;;;;;5052590;28;20041;-71
2022/01/11 03:10:56;;;;;;;52.22;15.48;;;;;;;;;;5052874;28;20095;-71
2022/01/11 03:13:22;;;;;;;52.57;16.43;;;;;;;;;;5052917;28;20045;-71
2022/01/11 03:15:48;;;;;;;56.40;16.98;;;;;;;;;;5055421;28;20067;-70
2022/01/11 03:18:15;;;;;;;63.22;17.70;;;;;;;;;;5056586;28;20079;-70
2022/01/11 03:20:42;;;;;;;44.03;14.98;;;;;;;;;;5055170;28;20045;-71
2022/01/11 03:23:07;;;;;;;53.95;15.60;;;;;;;;;;5054468;28;20045;-70
2022/01/11 03:25:34;;;;;;;40.23;12.97;;;;;;;;;;5056293;28;20044;-71
2022/01/11 03:28:00;;;;;;;51.35;14.98;;;;;;;;;;5055249;28;20048;-72
2022/01/11 03:30:25;;;;;;;61.75;15.77;;;;;;;;;;5049885;28;20102;-71
2022/01/11 03:32:51;;;;;;;47.60;15.40;;;;;;;;;;5056201;28;20518;-71
2022/01/11 03:35:17;;;;;;;65.47;17.37;;;;;;;;;;5056382;28;20379;-71
2022/01/11 03:37:43;;;;;;;57.77;15.37;;;;;;;;;;5038231;28;20047;-71
2022/01/11 03:40:13;;;;;;;56.35;15.13;;;;;;;;;;5055142;28;20477;-70
2022/01/11 03:42:38;;;;;;;43.22;13.80;;;;;;;;;;5056068;28;20125;-71
2022/01/11 03:45:06;;;;;;;56.30;15.00;;;;;;;;;;5054975;28;20072;-70
2022/01/11 03:47:31;;;;;;;49.03;14.80;;;;;;;;;;5054746;28;20033;-71
2022/01/11 03:49:57;;;;;;;49.33;13.03;;;;;;;;;;5054908;28;20047;-71
2022/01/11 03:52:22;;;;;;;49.67;12.80;;;;;;;;;;5055761;28;20400;-72
2022/01/11 03:57:20;;;;;;;41.53;12.38;;;;;;;;;;5055833;28;20036;-71
2022/01/11 03:59:46;;;;;;;45.30;13.25;;;;;;;;;;5056136;28;20045;-71
2022/01/11 04:02:11;;;;;;;62.70;16.23;;;;;;;;;;5055446;28;20043;-71
2022/01/11 04:04:37;;;;;;;69.53;16.83;;;;;;;;;;5055548;28;20124;-71
2022/01/11 04:07:02;;;;;;;70.17;16.30;;;;;;;;;;5055670;28;20048;-71
2022/01/11 04:09:28;;;;;;;90.37;16.97;;;;;;;;;;5054379;28;20025;-71
2022/01/11 04:11:53;;;;;;;50.33;14.50;;;;;;;;;;5055586;28;20124;-71
2022/01/11 04:14:19;;;;;;;85.23;16.53;;;;;;;;;;5055622;28;20076;-70
2022/01/11 04:16:46;;;;;;;40.20;13.33;;;;;;;;;;5055474;28;20028;-71
2022/01/11 04:19:12;;;;;;;57.05;13.27;;;;;;;;;;5046091;28;20075;-70
2022/01/11 04:21:37;;;;;;;42.60;12.57;;;;;;;;;;5053964;28;20064;-71
2022/01/11 04:24:03;;;;;;;40.53;13.23;;;;;;;;;;5053378;28;20048;-70
2022/01/11 04:26:28;;;;;;;61.90;14.83;;;;;;;;;;5054503;28;20500;-71
2022/01/11 04:28:53;;;;;;;51.63;14.13;;;;;;;;;;5055371;28;20044;-71
2022/01/11 04:31:19;;;;;;;37.13;12.97;;;;;;;;;;5053968;28;20029;-74
2022/01/11 04:33:45;;;;;;;57.20;14.53;;;;;;;;;;5053627;28;20040;-73
2022/01/11 04:36:11;;;;;;;50.33;13.10;;;;;;;;;;5053960;28;20112;-73
2022/01/11 04:38:37;;;;;;;40.60;13.30;;;;;;;;;;5053832;28;20194;-73
2022/01/11 04:41:03;;;;;;;57.97;15.07;;;;;;;;;;5053977;28;20045;-73
2022/01/11 04:43:30;;;;;;;45.10;12.73;;;;;;;;;;5053969;28;20077;-73
2022/01/11 04:45:56;;;;;;;50.88;13.52;;;;;;;;;;5054263;28;20482;-71
2022/01/11 04:48:22;;;;;;;49.92;14.00;;;;;;;;;;5053530;28;20041;-70
2022/01/11 04:50:47;;;;;;;36.40;11.70;;;;;;;;;;5054510;28;20044;-71
2022/01/11 04:53:13;;;;;;;40.40;11.30;;;;;;;;;;5053884;28;20040;-70
2022/01/11 04:55:39;;;;;;;38.27;11.17;;;;;;;;;;5054665;28;20036;-70
2022/01/11 04:58:04;;;;;;;33.33;10.30;;;;;;;;;;5054874;28;20052;-71
2022/01/11 05:00:30;;;;;;;27.60;10.00;;;;;;;;;;5054601;28;20033;-71
2022/01/11 05:02:57;;;;;;;26.67;8.83;;;;;;;;;;5054646;28;20064;-70
2022/01/11 05:05:23;;;;;;;28.73;9.70;;;;;;;;;;5053503;28;20047;-70
2022/01/11 05:07:49;;;;;;;33.20;11.10;;;;;;;;;;5054447;28;20467;-70
2022/01/11 05:10:14;;;;;;;33.20;11.27;;;;;;;;;;5053256;28;20041;-70
2022/01/11 05:12:40;;;;;;;37.00;10.70;;;;;;;;;;5054544;28;20032;-70
2022/01/11 05:15:10;;;;;;;42.13;11.60;;;;;;;;;;5053842;28;20515;-71
2022/01/11 05:17:37;;;;;;;37.65;10.02;;;;;;;;;;5054572;28;20087;-70
2022/01/11 05:20:04;;;;;;;31.83;10.88;;;;;;;;;;5054179;28;20045;-71
2022/01/11 05:22:29;;;;;;;26.80;9.60;;;;;;;;;;5054045;28;20061;-71
2022/01/11 05:24:55;;;;;;;22.33;9.10;;;;;;;;;;5054320;28;20111;-71
2022/01/11 05:27:20;;;;;;;20.27;8.37;;;;;;;;;;5053213;28;20048;-71
2022/01/11 05:29:46;;;;;;;26.87;9.10;;;;;;;;;;5054243;28;20368;-70
2022/01/11 05:32:11;;;;;;;21.77;7.93;;;;;;;;;;5054113;28;20041;-72
2022/01/11 05:34:36;;;;;;;27.33;9.07;;;;;;;;;;5054223;28;20047;-73
2022/01/11 05:37:03;;;;;;;21.67;8.40;;;;;;;;;;5052912;28;20116;-73
2022/01/11 05:39:28;;;;;;;22.33;8.18;;;;;;;;;;5052601;28;20058;-74
2022/01/11 05:41:54;;;;;;;22.00;8.87;;;;;;;;;;5036171;28;20132;-71
2022/01/11 05:44:20;;;;;;;18.13;7.60;;;;;;;;;;5052670;28;20097;-71
2022/01/11 05:46:45;;;;;;;20.43;7.67;;;;;;;;;;5052656;28;20052;-72
2022/01/11 05:49:11;;;;;;;18.13;7.13;;;;;;;;;;5053825;28;20278;-71
2022/01/11 05:51:36;;;;;;;19.27;6.90;;;;;;;;;;5053778;28;20055;-71
2022/01/11 05:54:02;;;;;;;21.60;7.33;;;;;;;;;;5052473;28;20094;-71
2022/01/11 05:56:27;;;;;;;35.50;11.50;;;;;;;;;;5053841;28;20041;-71
2022/01/11 05:58:53;;;;;;;26.87;9.57;;;;;;;;;;5053511;28;20079;-71
2022/01/11 06:01:19;;;;;;;32.53;9.07;;;;;;;;;;5053632;28;20066;-73
2022/01/11 06:03:44;;;;;;;22.58;8.85;;;;;;;;;;5052268;28;20473;-73
2022/01/11 06:06:10;;;;;;;33.80;9.20;;;;;;;;;;5035294;28;20124;-73
2022/01/11 06:08:35;;;;;;;44.20;10.27;;;;;;;;;;5053134;28;20041;-74
2022/01/11 06:11:01;;;;;;;35.83;9.60;;;;;;;;;;5053339;28;20036;-74
2022/01/11 06:13:26;;;;;;;35.30;8.93;;;;;;;;;;5052389;28;20037;-73
2022/01/11 06:15:52;;;;;;;32.77;9.37;;;;;;;;;;5052837;28;20033;-71
2022/01/11 06:18:18;;;;;;;26.40;9.03;;;;;;;;;;5053484;28;20099;-71
2022/01/11 06:20:44;;;;;;;26.67;9.15;;;;;;;;;;5051032;28;20375;-71
2022/01/11 06:23:09;;;;;;;28.67;9.33;;;;;;;;;;5053263;28;20057;-71
2022/01/11 06:25:35;;;;;;;24.53;8.97;;;;;;;;;;5051991;28;20388;-71
2022/01/11 06:28:01;;;;;;;24.27;9.07;;;;;;;;;;5051960;28;20555;-71
2022/01/11 06:30:27;;;;;;;24.15;8.55;;;;;;;;;;5052068;28;20133;-71
2022/01/11 06:32:54;;;;;;;30.07;8.83;;;;;;;;;;5051798;28;20123;-71
2022/01/11 06:35:20;;;;;;;43.28;10.40;;;;;;;;;;5051939;28;20079;-71
2022/01/11 06:37:46;;;;;;;23.27;8.23;;;;;;;;;;5052810;28;20048;-71
2022/01/11 06:40:13;;;;;;;30.90;9.48;;;;;;;;;;5051798;28;20045;-71
2022/01/11 06:42:39;;;;;;;28.35;8.82;;;;;;;;;;5051671;28;20036;-71
2022/01/11 06:45:06;;;;;;;26.70;7.50;;;;;;;;;;5050734;28;20048;-71
2022/01/11 06:47:31;;;;;;;23.98;8.18;;;;;;;;;;5052195;28;20440;-72
2022/01/11 06:49:57;;;;;;;25.67;6.77;;;;;;;;;;5052588;28;20033;-72
2022/01/11 06:52:22;;;;;;;19.27;7.33;;;;;;;;;;5052875;28;20073;-71
2022/01/11 06:54:48;;;;;;;23.40;8.23;;;;;;;;;;5052983;28;20497;-72
2022/01/11 06:57:13;;;;;;;20.07;8.47;;;;;;;;;;5052864;28;20025;-71
2022/01/11 06:59:39;;;;;;;19.73;7.57;;;;;;;;;;5052674;28;20044;-71
2022/01/11 07:02:05;;;;;;;31.67;8.97;;;;;;;;;;5052794;28;20172;-71
2022/01/11 07:04:30;;;;;;;25.60;8.30;;;;;;;;;;5052785;28;20017;-71
2022/01/11 07:06:56;;;;;;;28.30;7.57;;;;;;;;;;5051504;28;20397;-72
2022/01/11 07:09:21;;;;;;;16.53;7.30;;;;;;;;;;5051545;28;20047;-71
2022/01/11 07:11:47;;;;;;;19.80;7.40;;;;;;;;;;5052452;28;20492;-72
2022/01/11 07:14:12;;;;;;;15.47;7.63;;;;;;;;;;5051588;28;20033;-71
2022/01/11 07:16:39;;;;;;;25.07;8.33;;;;;;;;;;5052564;28;20385;-71
2022/01/11 07:19:04;;;;;;;13.68;6.68;;;;;;;;;;5051470;28;20371;-71
2022/01/11 07:21:30;;;;;;;13.47;6.20;;;;;;;;;;5053028;28;20071;-71
2022/01/11 07:23:55;;;;;;;16.73;6.77;;;;;;;;;;5052118;28;20053;-72
2022/01/11 07:26:21;;;;;;;17.03;7.50;;;;;;;;;;5052633;28;20025;-71
2022/01/11 07:28:47;;;;;;;33.60;8.70;;;;;;;;;;5052531;28;20131;-71
2022/01/11 07:31:12;;;;;;;21.17;7.40;;;;;;;;;;5052581;28;20041;-74
2022/01/11 07:33:37;;;;;;;17.80;7.07;;;;;;;;;;5050940;28;20025;-75
2022/01/11 07:36:04;;;;;;;128.67;13.30;;;;;;;;;;5051198;28;20090;-74
2022/01/11 07:38:30;;;;;;;64.43;9.88;;;;;;;;;;5051306;28;20060;-74
2022/01/11 07:40:55;;;;;;;74.87;8.87;;;;;;;;;;5052452;28;20456;-76
2022/01/11 07:43:22;;;;;;;39.83;7.83;;;;;;;;;;5052438;28;20070;-71
2022/01/11 07:45:47;;;;;;;19.45;7.38;;;;;;;;;;5052207;28;20037;-71
2022/01/11 07:48:13;;;;;;;19.67;8.00;;;;;;;;;;5051376;28;20359;-71
2022/01/11 07:50:38;;;;;;;18.40;7.00;;;;;;;;;;5052214;28;20049;-72
2022/01/11 07:53:05;;;;;;;17.77;7.10;;;;;;;;;;5052455;28;20045;-71
2022/01/11 07:55:31;;;;;;;;;;;;;;;;;;5051164;28;20031;-71
2022/01/11 07:57:56;;;;;;;38.35;10.55;;;;;;;;;;5049609;28;20011;-72
2022/01/11 08:00:22;;;;;;;35.30;10.03;;;;;;;;;;5052267;28;20392;-71
2022/01/11 08:02:47;;;;;;;26.13;9.43;;;;;;;;;;5055975;28;20037;-71
2022/01/11 08:05:12;;;;;;;22.53;7.90;;;;;;;;;;5055154;28;20561;-71
2022/01/11 08:07:39;;;;;;;23.50;8.03;;;;;;;;;;5055864;28;20028;-72
2022/01/11 08:10:05;;;;;;;;;;;;;;;;;;5056163;28;20020;-72
2022/01/11 08:12:30;;;;;;;15.98;6.80;;;;;;;;;;5055196;28;20446;-71
2022/01/11 08:14:55;;;;;;;83.73;11.63;;;;;;;;;;5055484;28;20033;-72
2022/01/11 08:17:21;;;;;;;19.70;6.93;;;;;;;;;;5055773;28;20469;-71
2022/01/11 08:19:46;;;;;;;69.00;9.03;;;;;;;;;;5055552;28;20081;-71
2022/01/11 08:22:12;;;;;;;26.93;8.27;;;;;;;;;;5055136;28;20413;-71
2022/01/11 08:24:41;;;;;;;18.43;6.57;;;;;;;;;;5055401;28;20017;-71
2022/01/11 08:27:06;;;;;;;20.08;6.32;;;;;;;;;;5054111;28;20095;-71
2022/01/11 08:29:32;;;;;;;15.33;6.20;;;;;;;;;;5054255;28;20041;-71
2022/01/11 08:31:57;;;;;;;14.07;6.10;;;;;;;;;;5055223;28;20110;-72
2022/01/11 08:34:23;;;;;;;17.13;7.97;;;;;;;;;;5055137;28;20041;-71
2022/01/11 08:36:50;;;;;;;19.67;7.33;;;;;;;;;;5054018;28;20051;-71
2022/01/11 08:39:17;;;;;;;55.10;9.55;;;;;;;;;;5051987;28;20029;-71
2022/01/11 08:41:42;;;;;;;24.63;6.63;;;;;;;;;;5037093;28;20136;-70
2022/01/11 08:44:11;;;;;;;12.90;6.60;;;;;;;;;;5055060;28;20516;-71
2022/01/11 08:46:42;;;;;;;12.60;5.88;;;;;;;;;;5053587;28;20033;-71
2022/01/11 08:49:09;;;;;;;14.30;5.60;;;;;;;;;;5055100;28;20051;-71
2022/01/11 08:51:34;;;;;;;;;;;;;;;;;;5047530;28;20072;-71
2022/01/11 08:54:00;;;;;;;47.17;6.93;;;;;;;;;;5045593;28;20009;-74
2022/01/11 08:56:25;;;;;;;11.73;5.07;;;;;;;;;;5053858;28;20660;-73
2022/01/11 08:58:51;;;;;;;18.37;6.60;;;;;;;;;;5053658;28;20717;-74
2022/01/11 09:01:16;;;;;;;10.80;5.17;;;;;;;;;;5050487;28;20052;-74
2022/01/11 09:03:42;;;;;;;11.03;5.13;;;;;;;;;;5052189;28;20569;-74
2022/01/11 09:06:09;;;;;;;9.90;4.18;;;;;;;;;;5052000;28;20028;-75
2022/01/11 09:08:35;;;;;;;10.30;4.32;;;;;;;;;;5053532;28;20218;-73
2022/01/11 09:11:01;;;;;;;11.25;4.00;;;;;;;;;;5050785;28;20052;-74
2022/01/11 09:13:27;;;;;;;8.57;5.20;;;;;;;;;;5052015;28;20029;-74
2022/01/11 09:15:53;;;;;;;9.63;4.27;;;;;;;;;;5052899;28;20029;-74
2022/01/11 09:18:19;;;;;;;14.37;5.23;;;;;;;;;;5053257;28;20037;-75
2022/01/11 09:20:45;;;;;;;31.17;5.75;;;;;;;;;;5052792;28;20028;-74
2022/01/11 09:23:10;;;;;;;9.43;4.70;;;;;;;;;;5052631;28;20120;-74
2022/01/11 09:25:36;;;;;;;6.53;4.10;;;;;;;;;;5052287;28;20064;-75
2022/01/11 09:28:01;;;;;;;7.03;3.30;;;;;;;;;;5052520;28;20068;-73
2022/01/11 09:30:27;;;;;;;5.20;2.70;;;;;;;;;;5051786;28;20041;-77
2022/01/11 09:32:53;;;;;;;5.30;3.00;;;;;;;;;;5052088;28;20072;-74
2022/01/11 09:35:18;;;;;;;8.67;3.57;;;;;;;;;;5053095;28;20164;-75
2022/01/11 09:37:46;;;;;;;4.83;3.00;;;;;;;;;;5051012;28;20528;-74
2022/01/11 09:40:12;;;;;;;6.65;3.10;;;;;;;;;;5052195;28;20059;-74
2022/01/11 09:42:38;;;;;;;5.57;2.90;;;;;;;;;;5049907;28;20040;-74
2022/01/11 09:45:05;;;;;;;4.68;2.30;;;;;;;;;;5052516;28;20055;-74
2022/01/11 09:47:31;;;;;;;4.78;2.15;;;;;;;;;;5045756;28;20043;-76
2022/01/11 09:49:56;;;;;;;5.33;2.90;;;;;;;;;;5048688;28;20040;-75
2022/01/11 09:52:25;;;;;;;4.57;2.50;;;;;;;;;;5048897;28;20028;-74
2022/01/11 09:54:50;;;;;;;6.40;2.63;;;;;;;;;;5046545;28;20543;-77
2022/01/11 09:57:16;;;;;;;4.47;2.77;;;;;;;;;;5046779;28;20040;-74
2022/01/11 09:59:41;;;;;;;3.63;2.00;;;;;;;;;;5048014;28;20033;-74
2022/01/11 10:02:07;;;;;;;3.40;1.90;;;;;;;;;;5048551;28;20120;-74
2022/01/11 10:04:35;;;;;;;2.63;1.80;;;;;;;;;;5049194;28;20377;-74
2022/01/11 10:07:03;;;;;;;2.97;1.90;;;;;;;;;;5048388;28;20473;-74
2022/01/11 10:09:29;;;;;;;2.88;1.90;;;;;;;;;;5047615;28;20532;-75
2022/01/11 10:12:00;;;;;;;2.22;1.60;;;;;;;;;;5050028;28;20072;-74
2022/01/11 10:14:31;;;;;;;2.42;1.60;;;;;;;;;;5048793;28;20040;-74
2022/01/11 10:17:09;;;;;;;3.67;1.33;;;;;;;;;;5048221;28;20184;-74
2022/01/11 10:19:34;;;;;;;;;;;;;;;;;;5049185;28;20393;-74
2022/01/11 10:22:03;;;;;;;3.17;1.30;;;;;;;;;;5049373;28;19924;-74
2022/01/11 10:24:33;;;;;;;1.67;1.20;;;;;;;;;;5046812;28;20465;-73
2022/01/11 10:27:05;;;;;;;3.60;1.02;;;;;;;;;;5047494;28;20090;-74
2022/01/11 10:29:42;;;;;;;2.28;1.13;;;;;;;;;;5046131;28;20040;-77
2022/01/11 10:32:12;;;;;;;1.30;1.10;;;;;;;;;;5047722;28;20072;-78
2022/01/11 10:34:38;;;;;;;2.75;1.20;;;;;;;;;;5047949;28;20163;-74
2022/01/11 10:37:05;;;;;;;2.70;1.33;;;;;;;;;;5047074;28;20552;-75
2022/01/11 10:39:34;;;;;;;3.95;2.30;;;;;;;;;;5046686;28;20305;-74
2022/01/11 10:42:01;;;;;;;3.35;2.05;;;;;;;;;;5045426;28;20053;-75
2022/01/11 10:45:09;;;;;;;2.22;1.33;;;;;;;;;;5048210;28;20025;-74
2022/01/11 10:47:37;;;;;;;2.53;1.08;;;;;;;;;;5030323;28;20071;-74
2022/01/11 10:50:28;;;;;;;1.65;1.20;;;;;;;;;;5030661;28;20116;-74
2022/01/11 10:52:55;;;;;;;3.38;1.23;;;;;;;;;;5031929;28;20049;-75
2022/01/11 10:55:23;;;;;;;1.75;1.13;;;;;;;;;;5048131;28;20063;-74
2022/01/11 10:57:55;;;;;;;2.38;1.63;;;;;;;;;;5048507;28;20073;-74
2022/01/11 11:00:32;;;;;;;1.50;1.08;;;;;;;;;;5050055;28;20477;-78
2022/01/11 11:03:10;;;;;;;1.23;1.13;;;;;;;;;;5041352;28;20040;-74
2022/01/11 11:05:46;;;;;;;2.47;1.27;;;;;;;;;;5045610;28;20040;-74
2022/01/11 11:08:17;;;;;;;2.97;1.95;;;;;;;;;;5048022;28;20126;-74
2022/01/11 11:10:44;;;;;;;2.38;1.77;;;;;;;;;;5048267;28;20377;-77
2022/01/11 11:13:19;;;;;;;2.30;1.90;;;;;;;;;;5047617;28;20056;-74
2022/01/11 11:15:44;;;;;;;3.38;1.75;;;;;;;;;;5047998;28;20028;-75
2022/01/11 11:18:33;;;;;;;1.80;1.50;;;;;;;;;;5048505;28;20044;-74
2022/01/11 11:21:38;;;;;;;2.47;2.28;;;;;;;;;;5044781;28;20045;-74
2022/01/11 11:24:04;;;;;;;1.80;1.20;;;;;;;;;;5037603;28;20095;-74
2022/01/11 11:26:38;;;;;;;2.83;1.70;;;;;;;;;;5048826;28;20041;-74
2022/01/11 11:29:08;;;;;;;2.38;1.73;;;;;;;;;;5036475;28;20417;-78
2022/01/11 11:31:34;;;;;;;1.63;1.40;;;;;;;;;;5048406;28;20041;-76
2022/01/11 11:34:01;;;;;;;2.40;1.40;;;;;;;;;;5049278;28;20047;-74
2022/01/11 11:36:27;;;;;;;2.42;1.58;;;;;;;;;;5051874;28;20028;-74
2022/01/11 11:39:11;;;;;;;1.60;1.17;;;;;;;;;;5051591;28;20456;-74
2022/01/11 11:41:42;;;;;;;2.10;1.67;;;;;;;;;;5050197;28;20120;-75
2022/01/11 11:44:16;;;;;;;3.45;1.67;;;;;;;;;;5050790;28;20362;-74
2022/01/11 11:46:51;;;;;;;4.20;2.33;;;;;;;;;;5053343;28;20116;-75
2022/01/11 11:49:46;;;;;;;2.65;2.15;;;;;;;;;;5049318;28;20047;-75
2022/01/11 11:52:26;;;;;;;3.25;2.08;;;;;;;;;;5050819;28;20436;-75
2022/01/11 11:55:05;;;;;;;5.78;3.17;;;;;;;;;;5050725;28;20487;-76
2022/01/11 11:57:32;;;;;;;6.25;3.65;;;;;;;;;;5049864;28;20040;-74
2022/01/11 11:59:59;;;;;;;7.25;4.47;;;;;;;;;;5050180;28;20033;-77
2022/01/11 12:02:39;;;;;;;7.15;3.53;;;;;;;;;;5049710;28;20405;-74
2022/01/11 12:05:07;;;;;;;5.93;3.53;;;;;;;;;;5051067;28;20071;-74
2022/01/11 12:07:40;;;;;;;8.23;4.10;;;;;;;;;;5050367;28;20460;-74
2022/01/11 12:10:18;;;;;;;7.53;3.45;;;;;;;;;;5049664;28;20033;-78
2022/01/11 12:12:43;;;;;;;7.47;2.90;;;;;;;;;;5049848;28;20120;-75
2022/01/11 12:15:32;;;;;;;7.97;2.90;;;;;;;;;;5050978;28;20448;-74
2022/01/11 12:17:57;;;;;;;9.95;2.88;;;;;;;;;;5050890;28;20040;-78
2022/01/11 12:20:50;;;;;;;11.63;2.93;;;;;;;;;;5050937;28;20033;-74
2022/01/11 12:23:35;;;;;;;8.55;2.42;;;;;;;;;;5048873;28;20066;-75
2022/01/11 12:26:27;;;;;;;4.00;2.33;;;;;;;;;;5050711;28;20036;-76
2022/01/11 12:29:02;;;;;;;5.93;2.55;;;;;;;;;;5042026;28;20420;-75
2022/01/11 12:31:30;;;;;;;14.60;5.28;;;;;;;;;;5049205;28;20359;-74
2022/01/11 12:33:56;;;;;;;15.52;2.90;;;;;;;;;;5049320;28;20088;-75
2022/01/11 12:36:21;;;;;;;7.13;2.03;;;;;;;;;;5050098;28;20044;-74
2022/01/11 12:39:06;;;;;;;5.20;2.27;;;;;;;;;;5049933;28;20075;-74
2022/01/11 12:41:37;;;;;;;10.90;2.75;;;;;;;;;;5051496;28;20037;-74
2022/01/11 12:45:35;;;;;;;7.55;2.13;;;;;;;;;;5051223;28;20025;-74
2022/01/11 12:47:17;;;;;;;11.02;3.33;;;;;;;;;;5041855;28;20049;-74
2022/01/11 12:50:03;;;;;;;9.90;2.40;;;;;;;;;;5051204;28;20040;-74
2022/01/11 12:52:28;;;;;;;9.45;2.58;;;;;;;;;;5050088;28;20032;-74
2022/01/11 12:54:57;;;;;;;6.97;2.40;;;;;;;;;;5050594;28;20033;-74
2022/01/11 12:57:28;;;;;;;14.10;2.78;;;;;;;;;;5048944;28;20096;-74
2022/01/11 13:00:00;;;;;;;8.68;2.10;;;;;;;;;;5049091;28;20397;-74
2022/01/11 13:02:27;;;;;;;10.25;2.63;;;;;;;;;;5048072;28;20083;-74
2022/01/11 13:04:55;;;;;;;8.98;2.03;;;;;;;;;;5049604;28;20072;-74
2022/01/11 13:07:26;;;;;;;10.55;2.45;;;;;;;;;;5049290;28;20039;-74
2022/01/11 13:10:01;;;;;;;13.02;2.42;;;;;;;;;;5049960;28;20474;-75
2022/01/11 13:12:54;;;;;;;8.35;2.70;;;;;;;;;;5036510;28;20040;-75
2022/01/11 13:15:36;;;;;;;10.68;2.40;;;;;;;;;;5047220;28;20041;-74
2022/01/11 13:18:21;;;;;;;8.38;2.50;;;;;;;;;;5043423;28;20041;-74
2022/01/11 13:21:01;;;;;;;7.53;2.35;;;;;;;;;;5043307;28;20043;-74
2022/01/11 13:23:43;;;;;;;12.27;3.30;;;;;;;;;;5046249;28;20041;-78
2022/01/11 13:26:12;;;;;;;18.13;2.42;;;;;;;;;;5050154;28;20044;-74
2022/01/11 13:28:37;;;;;;;10.68;2.97;;;;;;;;;;5050638;28;20032;-74
2022/01/11 13:31:08;;;;;;;10.93;2.73;;;;;;;;;;5049928;28;20032;-75
2022/01/11 13:33:48;;;;;;;11.10;2.70;;;;;;;;;;5046592;28;20036;-75
2022/01/11 13:36:30;;;;;;;11.88;2.28;;;;;;;;;;5043465;28;20049;-75
2022/01/11 13:39:07;;;;;;;9.57;2.58;;;;;;;;;;5039788;28;20078;-75
2022/01/11 13:41:48;;;;;;;10.52;3.22;;;;;;;;;;5049015;28;20369;-74
2022/01/11 13:44:20;;;;;;;7.63;2.50;;;;;;;;;;5048743;28;20186;-75
2022/01/11 13:46:48;;;;;;;12.60;2.85;;;;;;;;;;5054705;28;20131;-75
2022/01/11 13:49:14;;;;;;;8.25;3.10;;;;;;;;;;5048218;28;20385;-74
2022/01/11 13:51:43;;;;;;;10.95;2.83;;;;;;;;;;5050187;28;20052;-78
2022/01/11 13:54:09;;;;;;;12.50;3.38;;;;;;;;;;5048739;28;20725;-74
2022/01/11 13:56:39;;;;;;;12.17;3.60;;;;;;;;;;5049379;28;20041;-74
2022/01/11 13:59:05;;;;;;;13.50;3.63;;;;;;;;;;5048754;28;20494;-74
2022/01/11 14:01:30;;;;;;;11.97;3.60;;;;;;;;;;5048087;28;20128;-74
2022/01/11 14:04:18;;;;;;;11.37;3.10;;;;;;;;;;5049706;28;20032;-75
2022/01/11 14:06:52;;;;;;;8.65;2.90;;;;;;;;;;5050421;28;20044;-74
2022/01/11 14:09:34;;;;;;;14.00;3.45;;;;;;;;;;5050751;28;20028;-74
2022/01/11 14:12:07;;;;;;;9.65;3.28;;;;;;;;;;5048209;28;20069;-75
2022/01/11 14:14:34;;;;;;;13.32;3.60;;;;;;;;;;5050049;28;20033;-74
2022/01/11 14:17:18;;;;;;;12.55;2.90;;;;;;;;;;5049872;28;20047;-75
2022/01/11 14:19:58;;;;;;;11.95;3.17;;;;;;;;;;5048009;28;20037;-73
2022/01/11 14:22:35;;;;;;;12.05;4.00;;;;;;;;;;5049908;28;20049;-74
2022/01/11 14:25:00;;;;;;;8.23;2.83;;;;;;;;;;5048735;28;20087;-74
2022/01/11 14:27:30;;;;;;;9.73;3.28;;;;;;;;;;5046255;28;20052;-77
2022/01/11 14:30:09;;;;;;;8.63;3.83;;;;;;;;;;5048642;28;20024;-74
2022/01/11 14:32:47;;;;;;;12.95;3.58;;;;;;;;;;5048274;28;20498;-74
2022/01/11 14:35:14;;;;;;;11.88;2.72;;;;;;;;;;5047157;28;20025;-75
2022/01/11 14:37:39;;;;;;;9.90;3.35;;;;;;;;;;5047954;28;20462;-74